Time;durP1;ratioP1;P1;durP2;ratioP2;P2;SDS_P1;SDS_P2;PMS_P1;PMS_P2;Temp;Humidity;BMP_temperature;BMP_pressure;BME280_temperature;BME280_humidity;BME280_pressure;Samples;Min_cycle;Max_cycle;Signal;HPM_P1;HPM_P2
2022/11/07 00:00:14;;;;;;;9.25;4.68;;;11.00;99.90;;;;;;5090707;28;20052;-68
2022/11/07 00:02:40;;;;;;;11.55;4.70;;;11.00;99.90;;;;;;5091805;28;20043;-67
2022/11/07 00:05:06;;;;;;;10.55;5.05;;;11.00;99.90;;;;;;5091101;28;20036;-67
2022/11/07 00:07:32;;;;;;;10.05;4.70;;;11.00;99.90;;;;;;5090499;28;20080;-67
2022/11/07 00:09:58;;;;;;;9.30;4.70;;;11.00;99.90;;;;;;5091904;28;20071;-67
2022/11/07 00:12:23;;;;;;;10.57;4.32;;;11.00;99.90;;;;;;5091674;28;20055;-66
2022/11/07 00:14:50;;;;;;;8.32;4.63;;;11.10;99.90;;;;;;5091511;28;20031;-68
2022/11/07 00:17:17;;;;;;;8.90;4.22;;;11.10;99.90;;;;;;5090036;28;20097;-66
2022/11/07 00:19:42;;;;;;;11.50;4.95;;;11.10;99.90;;;;;;5090822;28;20059;-67
2022/11/07 00:22:08;;;;;;;13.98;4.95;;;11.10;99.90;;;;;;5091297;28;20036;-65
2022/11/07 00:24:33;;;;;;;9.48;4.40;;;11.10;99.90;;;;;;5091531;28;20067;-65
2022/11/07 00:26:59;;;;;;;9.38;4.32;;;11.10;99.90;;;;;;5090726;28;20452;-65
2022/11/07 00:29:24;;;;;;;10.20;4.55;;;11.10;99.90;;;;;;5091374;28;20032;-65
2022/11/07 00:31:50;;;;;;;10.70;4.60;;;11.10;99.90;;;;;;5090913;28;20044;-65
2022/11/07 00:34:16;;;;;;;10.68;4.78;;;11.10;99.90;;;;;;5091096;28;20078;-66
2022/11/07 00:36:42;;;;;;;12.57;5.05;;;11.00;99.90;;;;;;5090529;28;20123;-66
2022/11/07 00:39:09;;;;;;;10.95;4.70;;;11.00;99.90;;;;;;5090615;28;20580;-66
2022/11/07 00:41:36;;;;;;;11.88;4.63;;;11.00;99.90;;;;;;5091462;28;20465;-65
2022/11/07 00:44:01;;;;;;;10.73;4.70;;;10.90;99.90;;;;;;5090915;28;20215;-66
2022/11/07 00:46:27;;;;;;;11.68;4.20;;;10.90;99.90;;;;;;5090476;28;20051;-65
2022/11/07 00:48:53;;;;;;;10.43;4.45;;;10.90;99.90;;;;;;5090492;28;20147;-67
2022/11/07 00:51:21;;;;;;;12.55;4.57;;;11.00;99.90;;;;;;5090952;28;20036;-66
2022/11/07 00:53:47;;;;;;;10.18;4.43;;;11.00;99.90;;;;;;5090546;28;20032;-66
2022/11/07 00:56:16;;;;;;;10.68;4.32;;;11.00;99.90;;;;;;5091365;28;20166;-66
2022/11/07 00:58:43;;;;;;;15.93;4.95;;;11.00;99.90;;;;;;5089565;28;20089;-67
2022/11/07 01:01:16;;;;;;;11.45;4.25;;;11.00;99.90;;;;;;5090919;28;20060;-66
2022/11/07 01:06:29;;;;;;;10.63;4.35;;;11.10;99.90;;;;;;5090253;28;20059;-66
2022/11/07 01:08:55;;;;;;;8.85;4.57;;;11.10;99.90;;;;;;5089578;28;20889;-66
2022/11/07 01:11:22;;;;;;;8.57;4.80;;;11.20;99.90;;;;;;5089926;28;20524;-66
2022/11/07 01:13:47;;;;;;;9.50;4.50;;;11.20;99.90;;;;;;5090077;28;20342;-66
2022/11/07 01:16:13;;;;;;;12.27;4.80;;;11.20;99.90;;;;;;5091003;28;20032;-66
2022/11/07 01:18:38;;;;;;;8.20;4.65;;;11.20;99.90;;;;;;5090601;28;20119;-66
2022/11/07 01:21:06;;;;;;;10.23;4.50;;;11.20;99.90;;;;;;5090603;28;20039;-66
2022/11/07 01:23:32;;;;;;;8.35;4.68;;;11.20;99.90;;;;;;5084510;28;20391;-66
2022/11/07 01:26:01;;;;;;;9.95;4.03;;;11.20;99.90;;;;;;5089870;28;20438;-65
2022/11/07 01:28:27;;;;;;;9.45;4.38;;;11.30;99.90;;;;;;5090213;28;20422;-65
2022/11/07 01:30:53;;;;;;;8.52;4.40;;;11.30;99.90;;;;;;5087396;28;20047;-66
2022/11/07 01:33:18;;;;;;;10.65;4.20;;;11.30;99.90;;;;;;5089472;28;20110;-67
2022/11/07 01:35:44;;;;;;;8.43;4.20;;;11.40;99.90;;;;;;5090295;28;20040;-66
2022/11/07 01:38:09;;;;;;;9.95;3.95;;;11.30;99.90;;;;;;5089999;28;20441;-66
2022/11/07 01:41:19;;;;;;;9.13;4.15;;;11.40;99.90;;;;;;5090188;28;20040;-66
2022/11/07 01:43:48;;;;;;;10.07;4.20;;;11.30;99.90;;;;;;5089687;28;20044;-65
2022/11/07 01:46:15;;;;;;;9.73;3.95;;;11.40;99.90;;;;;;5090244;28;20043;-66
2022/11/07 01:48:45;;;;;;;10.43;3.85;;;11.40;99.90;;;;;;5089767;28;20036;-66
2022/11/07 01:51:11;;;;;;;11.20;4.47;;;11.40;99.90;;;;;;5089475;28;20048;-66
2022/11/07 01:53:37;;;;;;;10.82;4.63;;;11.50;99.90;;;;;;5089147;28;20062;-65
2022/11/07 01:56:08;;;;;;;7.82;3.90;;;11.50;99.90;;;;;;5089842;28;20040;-65
2022/11/07 01:58:34;;;;;;;9.38;3.50;;;11.50;99.90;;;;;;5089421;28;20032;-66
2022/11/07 02:01:00;;;;;;;10.90;4.13;;;11.50;99.90;;;;;;5089130;28;20244;-66
2022/11/07 02:03:26;;;;;;;11.98;3.72;;;11.50;99.90;;;;;;5089323;28;20069;-66
2022/11/07 02:05:57;;;;;;;12.60;3.88;;;11.50;99.90;;;;;;5089260;28;20044;-66
2022/11/07 02:08:23;;;;;;;10.20;3.92;;;11.50;99.90;;;;;;5089368;28;20039;-66
2022/11/07 02:10:49;;;;;;;9.65;3.30;;;11.50;99.90;;;;;;5089687;28;20431;-66
2022/11/07 02:13:23;;;;;;;12.02;4.43;;;11.50;99.90;;;;;;5089245;28;20680;-66
2022/11/07 02:15:49;;;;;;;12.50;4.20;;;11.50;99.90;;;;;;5089399;28;20089;-66
2022/11/07 02:18:15;;;;;;;13.57;4.63;;;11.50;99.90;;;;;;5078808;28;20076;-66
2022/11/07 02:20:40;;;;;;;10.55;4.50;;;11.50;99.90;;;;;;5086149;28;20040;-66
2022/11/07 02:23:11;;;;;;;14.23;4.35;;;11.50;99.90;;;;;;5089321;28;20398;-66
2022/11/07 02:25:37;;;;;;;10.25;4.30;;;11.50;99.90;;;;;;5088770;28;20036;-65
2022/11/07 02:28:07;;;;;;;10.48;4.18;;;11.50;99.90;;;;;;5088775;28;20059;-65
2022/11/07 02:30:33;;;;;;;10.45;4.22;;;11.50;99.90;;;;;;5089699;28;20126;-66
2022/11/07 02:32:59;;;;;;;11.38;4.05;;;11.50;99.90;;;;;;5088918;28;20107;-66
2022/11/07 02:35:43;;;;;;;11.15;4.03;;;11.60;99.90;;;;;;5071226;28;20050;-66
2022/11/07 02:38:35;;;;;;;11.65;4.10;;;11.50;99.90;;;;;;5089325;28;20036;-66
2022/11/07 02:41:05;;;;;;;12.38;4.32;;;11.50;99.90;;;;;;5089403;28;20048;-66
2022/11/07 02:43:33;;;;;;;13.80;4.53;;;11.50;99.90;;;;;;5089353;28;20126;-67
2022/11/07 02:46:02;;;;;;;17.02;4.68;;;11.40;99.90;;;;;;5089882;28;20119;-66
2022/11/07 02:48:29;;;;;;;10.10;4.60;;;11.40;99.90;;;;;;5088845;28;20113;-66
2022/11/07 02:50:55;;;;;;;9.43;4.68;;;11.40;99.90;;;;;;5089085;28;20089;-66
2022/11/07 02:53:20;;;;;;;12.13;4.20;;;11.40;99.90;;;;;;5088607;28;20040;-66
2022/11/07 02:55:46;;;;;;;13.93;4.40;;;11.40;99.90;;;;;;5089111;28;20047;-66
2022/11/07 02:58:11;;;;;;;13.15;4.38;;;11.30;99.90;;;;;;5088268;28;20125;-67
2022/11/07 03:00:37;;;;;;;11.98;4.53;;;11.30;99.90;;;;;;5088685;28;20423;-67
2022/11/07 03:03:03;;;;;;;15.82;5.05;;;11.40;99.90;;;;;;5092498;28;20117;-67
2022/11/07 03:05:28;;;;;;;10.73;4.00;;;11.30;99.90;;;;;;5093304;28;20532;-66
2022/11/07 03:07:54;;;;;;;11.68;4.88;;;11.20;99.90;;;;;;5092280;28;20143;-66
2022/11/07 03:10:19;;;;;;;11.48;3.83;;;11.30;99.90;;;;;;5091404;28;20057;-66
2022/11/07 03:12:45;;;;;;;13.50;4.55;;;11.30;99.90;;;;;;5092400;28;20054;-66
2022/11/07 03:15:12;;;;;;;12.82;3.83;;;11.20;99.90;;;;;;5092458;28;20040;-66
2022/11/07 03:17:38;;;;;;;11.57;4.45;;;11.20;99.90;;;;;;5092481;28;20051;-65
2022/11/07 03:20:04;;;;;;;9.50;4.20;;;11.30;99.90;;;;;;5093153;28;20101;-66
2022/11/07 03:22:30;;;;;;;10.50;3.83;;;11.20;99.90;;;;;;5092858;28;20150;-65
2022/11/07 03:24:55;;;;;;;11.57;4.28;;;11.30;99.90;;;;;;5092523;28;20467;-65
2022/11/07 03:27:21;;;;;;;11.15;4.43;;;11.50;99.90;;;;;;5092809;28;20116;-65
2022/11/07 03:29:47;;;;;;;12.23;4.05;;;11.30;99.90;;;;;;5092372;28;20393;-66
2022/11/07 03:32:12;;;;;;;11.68;4.35;;;11.30;99.90;;;;;;5092160;28;20097;-66
2022/11/07 03:34:38;;;;;;;9.07;4.50;;;11.20;99.90;;;;;;5092251;28;20028;-67
2022/11/07 03:37:04;;;;;;;11.98;4.25;;;11.20;99.90;;;;;;5092451;28;20059;-66
2022/11/07 03:39:29;;;;;;;15.50;4.90;;;11.20;99.90;;;;;;5092085;28;20448;-66
2022/11/07 03:41:55;;;;;;;10.30;4.68;;;11.30;99.90;;;;;;5091564;28;20040;-66
2022/11/07 03:44:21;;;;;;;12.10;4.22;;;11.30;99.90;;;;;;5091580;28;20484;-66
2022/11/07 03:46:46;;;;;;;12.10;4.45;;;11.30;99.90;;;;;;5091800;28;20111;-66
2022/11/07 03:49:12;;;;;;;13.00;4.72;;;11.30;99.90;;;;;;5092018;28;20493;-66
2022/11/07 03:51:38;;;;;;;12.52;4.45;;;11.30;99.90;;;;;;5092146;28;20063;-66
2022/11/07 03:54:03;;;;;;;8.63;3.85;;;11.20;99.90;;;;;;5092047;28;20125;-66
2022/11/07 03:56:29;;;;;;;12.55;4.50;;;11.30;99.90;;;;;;5091782;28;20132;-66
2022/11/07 03:58:55;;;;;;;13.70;4.30;;;11.20;99.90;;;;;;5091402;28;20038;-66
2022/11/07 04:01:21;;;;;;;9.68;4.05;;;11.10;99.90;;;;;;5091985;28;20067;-66
2022/11/07 04:03:46;;;;;;;15.65;4.60;;;11.20;99.90;;;;;;5091772;28;20032;-68
2022/11/07 04:06:12;;;;;;;14.30;4.35;;;11.10;99.90;;;;;;5091467;28;20039;-66
2022/11/07 04:08:38;;;;;;;11.77;4.70;;;11.10;99.90;;;;;;5091148;28;20476;-66
2022/11/07 04:11:03;;;;;;;12.55;4.63;;;11.10;99.90;;;;;;5091323;28;20107;-66
2022/11/07 04:19:00;;;;;;;8.15;4.07;;;11.10;99.90;;;;;;5091599;28;20086;-66
2022/11/07 04:21:26;;;;;;;12.80;4.47;;;11.10;99.90;;;;;;5091915;28;20110;-66
2022/11/07 04:23:51;;;;;;;11.77;4.88;;;11.10;99.90;;;;;;5091167;28;20131;-66
2022/11/07 04:29:01;;;;;;;11.18;4.88;;;11.00;99.90;;;;;;5091478;28;20491;-66
2022/11/07 04:31:27;;;;;;;9.65;4.90;;;10.90;99.90;;;;;;5091504;28;20058;-66
2022/11/07 04:33:52;;;;;;;15.98;5.43;;;10.90;99.90;;;;;;5091327;28;20509;-66
2022/11/07 04:36:18;;;;;;;12.63;5.25;;;10.90;99.90;;;;;;5091591;28;20111;-66
2022/11/07 04:38:43;;;;;;;10.98;5.13;;;10.80;99.90;;;;;;5091211;28;20433;-66
2022/11/07 04:41:21;;;;;;;10.77;5.35;;;10.80;99.90;;;;;;5091567;28;20032;-66
2022/11/07 04:43:46;;;;;;;10.65;4.60;;;10.80;99.90;;;;;;5078204;28;20077;-66
2022/11/07 04:46:12;;;;;;;12.32;5.40;;;10.90;99.90;;;;;;5091672;28;20448;-66
2022/11/07 04:48:38;;;;;;;13.68;4.55;;;10.90;99.90;;;;;;5090748;28;20075;-66
2022/11/07 04:51:03;;;;;;;12.23;4.88;;;10.80;99.90;;;;;;5090997;28;20518;-65
2022/11/07 04:53:29;;;;;;;10.88;4.75;;;10.80;99.90;;;;;;5091120;28;20115;-65
2022/11/07 04:55:54;;;;;;;9.63;4.65;;;10.80;99.90;;;;;;5091175;28;20036;-66
2022/11/07 04:58:20;;;;;;;10.93;4.70;;;10.70;99.90;;;;;;5090841;28;20087;-66
2022/11/07 05:00:46;;;;;;;10.20;4.20;;;10.70;99.90;;;;;;5090817;28;20056;-66
2022/11/07 05:03:11;;;;;;;10.55;4.60;;;10.70;99.90;;;;;;5089624;28;20102;-66
2022/11/07 05:05:37;;;;;;;10.38;4.63;;;10.60;99.90;;;;;;5089667;28;20054;-66
2022/11/07 05:08:03;;;;;;;9.82;3.95;;;10.70;99.90;;;;;;5088436;28;20068;-65
2022/11/07 05:10:28;;;;;;;10.73;4.25;;;10.80;99.90;;;;;;5089687;28;20350;-66
2022/11/07 05:12:55;;;;;;;9.30;4.30;;;10.80;99.90;;;;;;5089634;28;20538;-66
2022/11/07 05:15:21;;;;;;;10.73;4.25;;;10.70;99.90;;;;;;5089392;28;20043;-66
2022/11/07 05:17:47;;;;;;;12.77;4.15;;;10.70;99.90;;;;;;5088289;28;20035;-66
2022/11/07 05:20:27;;;;;;;12.23;4.20;;;10.80;99.90;;;;;;5089031;28;20378;-66
2022/11/07 05:23:12;;;;;;;11.10;3.85;;;10.80;99.90;;;;;;5087744;28;20617;-66
2022/11/07 05:25:38;;;;;;;;;;;10.90;99.90;;;;;;5088985;28;20082;-66
2022/11/07 05:28:05;;;;;;;10.90;4.03;;;10.90;99.90;;;;;;5086529;28;19924;-66
2022/11/07 05:30:30;;;;;;;11.93;4.32;;;10.90;99.90;;;;;;5089524;28;20044;-66
2022/11/07 05:32:56;;;;;;;12.93;4.45;;;11.00;99.90;;;;;;5089550;28;20080;-67
2022/11/07 05:35:22;;;;;;;14.48;4.60;;;11.10;99.90;;;;;;5089793;28;20039;-66
2022/11/07 05:37:48;;;;;;;11.07;4.28;;;11.10;99.90;;;;;;5088779;28;20429;-66
2022/11/07 05:40:13;;;;;;;11.50;4.13;;;11.10;99.90;;;;;;5088846;28;20036;-66
2022/11/07 05:42:39;;;;;;;11.02;4.57;;;11.10;99.90;;;;;;5088734;28;20039;-66
2022/11/07 05:45:05;;;;;;;10.70;5.05;;;11.10;99.90;;;;;;5089058;28;20040;-66
2022/11/07 05:47:31;;;;;;;13.40;4.50;;;11.20;99.90;;;;;;5088410;28;20484;-67
2022/11/07 05:49:56;;;;;;;13.07;5.10;;;11.20;99.90;;;;;;5089270;28;20032;-66
2022/11/07 05:52:22;;;;;;;12.52;5.13;;;11.20;99.90;;;;;;5088578;28;20377;-65
2022/11/07 05:54:48;;;;;;;12.63;5.30;;;11.10;99.90;;;;;;5089253;28;20079;-65
2022/11/07 05:57:13;;;;;;;15.60;5.88;;;11.20;99.90;;;;;;5088961;28;20466;-66
2022/11/07 05:59:39;;;;;;;11.63;5.07;;;11.10;99.90;;;;;;5088241;28;20063;-66
2022/11/07 06:02:05;;;;;;;13.63;5.05;;;11.10;99.90;;;;;;5088444;28;20125;-65
2022/11/07 06:04:30;;;;;;;16.10;5.53;;;11.10;99.90;;;;;;5088836;28;20417;-65
2022/11/07 06:06:56;;;;;;;12.88;5.47;;;11.10;99.90;;;;;;5088426;28;20075;-65
2022/11/07 06:09:21;;;;;;;13.98;5.78;;;11.10;99.90;;;;;;5088341;28;20097;-65
2022/11/07 06:11:47;;;;;;;17.33;6.05;;;11.00;99.90;;;;;;5088472;28;20032;-66
2022/11/07 06:14:12;;;;;;;12.80;5.38;;;11.10;99.90;;;;;;5087797;28;20032;-67
2022/11/07 06:16:38;;;;;;;15.80;5.88;;;11.10;99.90;;;;;;5088826;28;20036;-66
2022/11/07 06:19:03;;;;;;;14.20;5.75;;;11.00;99.90;;;;;;5088296;28;20413;-67
2022/11/07 06:21:29;;;;;;;15.07;6.05;;;11.00;99.90;;;;;;5086599;28;20051;-67
2022/11/07 06:23:56;;;;;;;13.32;5.68;;;11.10;99.90;;;;;;5087745;28;20040;-66
2022/11/07 06:26:21;;;;;;;13.80;5.50;;;11.10;99.90;;;;;;5088839;28;20139;-68
2022/11/07 06:28:47;;;;;;;15.50;5.97;;;11.10;99.90;;;;;;5088783;28;20032;-66
2022/11/07 06:31:12;;;;;;;15.50;5.55;;;11.10;99.90;;;;;;5088250;28;20311;-66
2022/11/07 06:33:38;;;;;;;16.85;6.35;;;11.10;99.90;;;;;;5088623;28;20499;-66
2022/11/07 06:36:07;;;;;;;16.92;6.20;;;11.10;99.90;;;;;;5088572;28;20082;-66
2022/11/07 06:38:33;;;;;;;16.73;6.13;;;11.10;99.90;;;;;;5092427;28;20036;-64
2022/11/07 06:41:07;;;;;;;14.20;6.47;;;11.10;99.90;;;;;;5091524;28;20036;-64
2022/11/07 06:43:33;;;;;;;13.20;6.25;;;11.20;99.90;;;;;;5091706;28;20035;-65
2022/11/07 06:46:05;;;;;;;17.40;6.25;;;11.20;99.90;;;;;;5092832;28;20063;-65
2022/11/07 06:48:31;;;;;;;16.13;6.72;;;11.20;99.90;;;;;;5090617;28;20121;-64
2022/11/07 06:50:59;;;;;;;13.63;5.68;;;11.30;99.90;;;;;;5092514;28;20040;-65
2022/11/07 06:53:25;;;;;;;14.07;6.47;;;11.30;99.90;;;;;;5090895;28;20035;-64
2022/11/07 06:55:51;;;;;;;12.25;6.18;;;11.30;99.90;;;;;;5092184;28;20452;-65
2022/11/07 06:58:16;;;;;;;16.67;7.13;;;11.30;99.90;;;;;;5093198;28;20051;-66
2022/11/07 07:00:42;;;;;;;18.15;6.70;;;11.30;99.90;;;;;;5091271;28;20044;-66
2022/11/07 07:03:09;;;;;;;13.20;5.82;;;11.40;99.90;;;;;;5089943;28;20460;-65
2022/11/07 07:05:36;;;;;;;13.65;6.40;;;11.40;99.90;;;;;;5091936;28;20102;-65
2022/11/07 07:08:03;;;;;;;19.45;6.97;;;11.30;99.90;;;;;;5091287;28;20124;-65
2022/11/07 07:10:29;;;;;;;13.77;6.53;;;11.30;99.90;;;;;;5092203;28;20032;-65
2022/11/07 07:12:55;;;;;;;13.57;6.05;;;11.30;99.90;;;;;;5092257;28;20032;-66
2022/11/07 07:15:21;;;;;;;14.75;5.93;;;11.40;99.90;;;;;;5092081;28;20718;-66
2022/11/07 07:17:47;;;;;;;12.70;5.95;;;11.40;99.90;;;;;;5092671;28;20040;-66
2022/11/07 07:20:12;;;;;;;15.93;5.90;;;11.40;99.90;;;;;;5093345;28;20105;-65
2022/11/07 07:22:38;;;;;;;12.40;5.38;;;11.50;99.90;;;;;;5092747;28;20090;-65
2022/11/07 07:25:04;;;;;;;13.93;5.57;;;11.60;99.90;;;;;;5092663;28;20105;-65
2022/11/07 07:27:29;;;;;;;16.00;5.07;;;11.60;99.90;;;;;;5093418;28;20333;-65
2022/11/07 07:29:55;;;;;;;16.55;5.78;;;11.60;99.90;;;;;;5093888;28;20040;-65
2022/11/07 07:32:23;;;;;;;14.82;5.43;;;11.70;99.90;;;;;;5086713;28;20444;-65
2022/11/07 07:34:50;;;;;;;16.00;5.80;;;11.70;99.90;;;;;;5091463;28;20085;-65
2022/11/07 07:37:16;;;;;;;13.98;5.75;;;11.80;99.90;;;;;;5091976;28;20348;-65
2022/11/07 07:39:41;;;;;;;10.90;5.18;;;11.70;99.90;;;;;;5092089;28;20586;-65
2022/11/07 07:42:07;;;;;;;10.93;4.93;;;11.80;99.90;;;;;;5091233;28;20472;-65
2022/11/07 07:44:33;;;;;;;13.18;5.50;;;11.70;99.90;;;;;;5091550;28;20132;-65
2022/11/07 07:46:59;;;;;;;16.60;6.03;;;11.80;99.90;;;;;;5090420;28;20105;-64
2022/11/07 07:49:25;;;;;;;16.35;5.43;;;11.80;99.90;;;;;;5087508;28;20055;-64
2022/11/07 07:51:50;;;;;;;13.77;5.45;;;11.80;99.90;;;;;;5090495;28;20059;-64
2022/11/07 07:54:16;;;;;;;15.27;5.72;;;11.90;99.90;;;;;;5090601;28;20086;-64
2022/11/07 07:56:41;;;;;;;14.90;5.88;;;11.90;99.90;;;;;;5087523;28;20044;-64
2022/11/07 12:40:34;;;;;;;10.93;4.10;;;14.50;99.90;;;;;;5043246;28;1560749;-66
2022/11/07 12:43:36;;;;;;;13.27;3.97;;;14.50;99.90;;;;;;5107335;28;20341;-65
2022/11/07 12:46:36;;;;;;;13.93;4.10;;;14.50;99.90;;;;;;5101431;28;20054;-65
2022/11/07 12:49:21;;;;;;;18.48;4.82;;;14.50;99.90;;;;;;5094467;27;20072;-64
2022/11/07 12:52:11;;;;;;;11.82;4.38;;;14.50;99.90;;;;;;5086747;28;20412;-69
2022/11/07 12:55:02;;;;;;;15.52;4.28;;;14.40;99.90;;;;;;5105340;28;20055;-64
2022/11/07 12:57:36;;;;;;;14.55;4.93;;;14.40;99.90;;;;;;5099645;28;20112;-66
2022/11/07 13:00:16;;;;;;;14.75;4.05;;;14.40;99.90;;;;;;5099517;28;20054;-64
2022/11/07 13:03:19;;;;;;;24.40;14.40;;;14.30;99.90;;;;;;5099895;28;20046;-65
2022/11/07 13:06:07;;;;;;;12.55;5.05;;;14.40;99.90;;;;;;5105230;28;20051;-65
2022/11/07 13:08:38;;;;;;;13.45;5.28;;;14.40;99.90;;;;;;5084611;28;20080;-65
2022/11/07 13:11:31;;;;;;;18.58;5.25;;;14.40;99.90;;;;;;5099224;28;20133;-65
2022/11/07 13:14:07;;;;;;;11.13;4.45;;;14.40;99.90;;;;;;5098941;28;20752;-64
2022/11/07 13:16:36;;;;;;;11.35;4.22;;;14.40;99.90;;;;;;5096530;28;20087;-64
2022/11/07 13:19:09;;;;;;;13.48;4.40;;;14.40;99.90;;;;;;5085277;28;20635;-65
2022/11/07 13:21:42;;;;;;;13.10;4.88;;;14.40;99.90;;;;;;5100386;28;20102;-65
2022/11/07 13:24:18;;;;;;;10.88;4.10;;;14.40;99.90;;;;;;5080417;28;20035;-65
2022/11/07 13:26:44;;;;;;;13.15;4.05;;;14.40;99.90;;;;;;5086020;28;20039;-65
2022/11/07 13:29:23;;;;;;;11.75;4.03;;;14.40;99.90;;;;;;5082224;28;20053;-66
2022/11/07 13:32:12;;;;;;;12.48;4.47;;;14.40;99.90;;;;;;5098761;28;20349;-66
2022/11/07 13:34:50;;;;;;;14.80;5.30;;;14.30;99.90;;;;;;5081959;28;20047;-65
2022/11/07 13:37:20;;;;;;;11.93;4.70;;;14.30;99.90;;;;;;5071381;28;20082;-65
2022/11/07 13:39:50;;;;;;;13.25;4.70;;;14.30;99.90;;;;;;5100050;28;20054;-65
2022/11/07 13:42:17;;;;;;;14.15;4.68;;;14.30;99.90;;;;;;5063423;28;20177;-65
2022/11/07 13:44:51;;;;;;;15.30;4.88;;;14.30;99.90;;;;;;5098250;28;20050;-65
2022/11/07 13:47:23;;;;;;;13.85;4.50;;;14.30;99.90;;;;;;5080904;28;20047;-65
2022/11/07 13:49:50;;;;;;;12.13;4.47;;;14.30;99.90;;;;;;5083564;28;20080;-65
2022/11/07 13:52:31;;;;;;;13.82;5.75;;;14.30;99.90;;;;;;5066764;28;20048;-65
2022/11/07 13:55:05;;;;;;;15.07;5.00;;;14.30;99.90;;;;;;5063829;28;20040;-65
2022/11/07 13:57:36;;;;;;;14.05;4.63;;;14.30;99.90;;;;;;5098077;28;20032;-67
2022/11/07 14:00:12;;;;;;;15.30;5.20;;;14.30;99.90;;;;;;5071994;28;20039;-65
2022/11/07 14:02:38;;;;;;;16.38;5.00;;;14.30;99.90;;;;;;5080693;28;20341;-65
2022/11/07 14:05:07;;;;;;;14.15;4.80;;;14.30;99.90;;;;;;5101487;28;20051;-65
2022/11/07 14:07:35;;;;;;;12.32;4.47;;;14.30;99.90;;;;;;5103726;28;20043;-65
2022/11/07 14:10:02;;;;;;;13.52;4.43;;;14.30;99.90;;;;;;5084005;28;20105;-67
2022/11/07 14:12:28;;;;;;;14.32;4.45;;;14.30;99.90;;;;;;5082583;28;20032;-65
2022/11/07 14:14:57;;;;;;;15.43;4.78;;;14.40;99.90;;;;;;5080220;28;20101;-66
2022/11/07 14:17:30;;;;;;;13.13;4.30;;;14.30;99.90;;;;;;5077477;28;20036;-65
2022/11/07 14:20:18;;;;;;;14.27;4.90;;;14.40;99.90;;;;;;5101104;28;20059;-65
2022/11/07 14:22:50;;;;;;;17.65;5.13;;;14.30;99.90;;;;;;5087980;28;20515;-65
2022/11/07 14:25:21;;;;;;;14.05;4.28;;;14.30;99.90;;;;;;5078205;28;20111;-65
2022/11/07 14:27:47;;;;;;;12.93;4.38;;;14.30;99.90;;;;;;5076682;28;20055;-65
2022/11/07 14:30:18;;;;;;;13.90;4.22;;;14.30;99.90;;;;;;5100126;28;20028;-69
2022/11/07 14:32:49;;;;;;;13.82;4.57;;;14.30;99.90;;;;;;5087075;28;20109;-65
2022/11/07 14:35:18;;;;;;;14.65;4.50;;;14.30;99.90;;;;;;5085165;28;20440;-64
2022/11/07 14:37:44;;;;;;;11.85;3.95;;;14.30;99.90;;;;;;5095703;28;20047;-65
2022/11/07 14:40:10;;;;;;;12.48;4.55;;;14.30;99.90;;;;;;5060535;28;20058;-64
2022/11/07 14:42:37;;;;;;;14.13;4.30;;;14.30;99.90;;;;;;5065250;28;20091;-65
2022/11/07 14:45:04;;;;;;;13.00;4.35;;;14.30;99.90;;;;;;5078035;28;20067;-64
2022/11/07 14:47:34;;;;;;;13.95;4.07;;;14.30;99.90;;;;;;5061170;28;20250;-65
2022/11/07 14:50:01;;;;;;;12.52;4.22;;;14.30;99.90;;;;;;5060696;28;20055;-63
2022/11/07 14:52:31;;;;;;;9.43;3.80;;;14.30;99.90;;;;;;5061849;28;20088;-64
2022/11/07 14:55:11;;;;;;;11.23;3.55;;;14.30;99.90;;;;;;5077240;28;20055;-65
2022/11/07 14:57:38;;;;;;;9.88;4.00;;;14.20;99.90;;;;;;5076586;28;20107;-64
2022/11/07 15:00:06;;;;;;;15.35;4.13;;;14.20;99.90;;;;;;5081800;28;20353;-65
2022/11/07 15:02:33;;;;;;;12.18;3.75;;;14.30;99.90;;;;;;5062590;28;20465;-64
2022/11/07 15:05:00;;;;;;;10.88;3.80;;;14.30;99.90;;;;;;5064535;28;20051;-64
2022/11/07 15:07:32;;;;;;;11.88;3.75;;;14.20;99.90;;;;;;5073925;28;20055;-64
2022/11/07 15:10:13;;;;;;;13.18;4.30;;;14.20;99.90;;;;;;5063285;28;20044;-64
2022/11/07 15:12:50;;;;;;;11.77;4.10;;;14.20;99.90;;;;;;5085156;28;20410;-63
2022/11/07 15:15:22;;;;;;;12.02;4.40;;;14.20;99.90;;;;;;5080917;28;20040;-64
2022/11/07 15:17:49;;;;;;;11.60;3.92;;;14.20;99.90;;;;;;5086311;28;20036;-64
2022/11/07 15:20:31;;;;;;;11.65;3.60;;;14.20;99.90;;;;;;5083161;28;20040;-64
2022/11/07 15:23:26;;;;;;;11.93;3.95;;;14.20;99.90;;;;;;5086159;28;20067;-64
2022/11/07 15:25:59;;;;;;;12.45;3.53;;;14.10;99.90;;;;;;5079536;28;20120;-65
2022/11/07 15:28:42;;;;;;;12.05;3.58;;;14.10;99.90;;;;;;5043932;28;20637;-64
2022/11/07 15:31:37;;;;;;;13.70;3.75;;;14.10;99.90;;;;;;5080624;28;20033;-64
2022/11/07 15:34:09;;;;;;;15.13;3.85;;;14.00;99.90;;;;;;5064328;28;20056;-64
2022/11/07 15:36:37;;;;;;;12.90;3.83;;;14.10;99.90;;;;;;5049146;28;20043;-64
2022/11/07 15:39:03;;;;;;;14.55;4.15;;;14.00;99.90;;;;;;5064194;28;20118;-64
2022/11/07 15:41:29;;;;;;;13.88;4.00;;;14.00;99.90;;;;;;5080355;28;20055;-64
2022/11/07 15:43:54;;;;;;;11.10;3.60;;;13.90;99.90;;;;;;5082014;28;20043;-65
2022/11/07 15:46:36;;;;;;;13.32;4.05;;;13.90;99.90;;;;;;5079880;28;21482;-64
2022/11/07 15:49:02;;;;;;;12.63;3.45;;;14.00;99.90;;;;;;5062967;28;20439;-65
2022/11/07 15:51:29;;;;;;;12.45;3.90;;;13.90;99.90;;;;;;5062073;28;20067;-64
2022/11/07 15:53:54;;;;;;;11.73;4.28;;;13.80;99.90;;;;;;5062059;28;20045;-65
2022/11/07 15:56:22;;;;;;;13.50;4.22;;;13.80;99.90;;;;;;5080757;28;20049;-64
2022/11/07 15:58:49;;;;;;;11.38;4.00;;;13.80;99.90;;;;;;5057806;28;20064;-65
2022/11/07 16:01:14;;;;;;;14.63;4.28;;;13.80;99.90;;;;;;5064661;28;20097;-64
2022/11/07 16:03:40;;;;;;;9.80;3.50;;;13.70;99.90;;;;;;5085729;28;20040;-62
2022/11/07 16:06:16;;;;;;;13.25;4.35;;;13.70;99.90;;;;;;5079802;28;20056;-67
2022/11/07 16:08:41;;;;;;;14.00;4.28;;;13.70;99.90;;;;;;5069159;28;20119;-70
2022/11/07 16:11:10;;;;;;;14.27;4.07;;;13.60;99.90;;;;;;5080596;28;20134;-65
2022/11/07 16:13:36;;;;;;;12.93;4.05;;;13.60;99.90;;;;;;5061410;28;20338;-65
2022/11/07 16:16:04;;;;;;;12.98;4.10;;;13.60;99.90;;;;;;5085383;28;20426;-63
2022/11/07 16:18:36;;;;;;;11.30;3.85;;;13.60;99.90;;;;;;5087771;28;20123;-65
2022/11/07 16:21:02;;;;;;;14.38;4.30;;;13.60;99.90;;;;;;5080306;28;20044;-64
2022/11/07 16:23:28;;;;;;;12.70;4.40;;;13.60;99.90;;;;;;5084636;28;20341;-65
2022/11/07 16:25:54;;;;;;;13.52;4.00;;;13.60;99.90;;;;;;5079440;28;20043;-66
2022/11/07 16:28:28;;;;;;;9.90;3.22;;;13.70;99.90;;;;;;5045980;28;20449;-66
2022/11/07 16:30:54;;;;;;;13.98;4.43;;;13.70;99.90;;;;;;5082497;28;20044;-65
2022/11/07 16:33:20;;;;;;;17.15;8.38;;;13.70;99.90;;;;;;5077388;28;20639;-63
2022/11/07 16:35:49;;;;;;;14.75;4.70;;;13.70;99.90;;;;;;5082878;28;20063;-64
2022/11/07 16:38:17;;;;;;;17.35;8.10;;;13.80;99.90;;;;;;5084031;28;20148;-65
2022/11/07 16:40:44;;;;;;;20.52;9.85;;;13.80;99.90;;;;;;5080793;28;20465;-64
2022/11/07 16:43:10;;;;;;;12.35;4.88;;;13.80;99.90;;;;;;5100219;28;20039;-63
2022/11/07 16:45:39;;;;;;;10.85;4.30;;;13.80;99.90;;;;;;5082436;28;20126;-64
2022/11/07 16:48:05;;;;;;;14.52;4.28;;;13.70;99.90;;;;;;5100114;28;20158;-63
2022/11/07 16:50:31;;;;;;;10.98;4.22;;;13.70;99.90;;;;;;5085468;28;20146;-64
2022/11/07 16:52:57;;;;;;;14.30;5.20;;;13.70;99.90;;;;;;5099384;28;20055;-64
2022/11/07 16:55:22;;;;;;;10.93;3.53;;;13.70;99.90;;;;;;5098995;28;20032;-63
2022/11/07 16:57:48;;;;;;;11.82;3.55;;;13.70;99.90;;;;;;5084030;28;20069;-64
2022/11/07 17:00:19;;;;;;;12.50;4.22;;;13.70;99.90;;;;;;5097806;28;20058;-64
2022/11/07 17:02:45;;;;;;;15.00;5.68;;;13.60;99.90;;;;;;5084908;28;20048;-63
2022/11/07 17:05:11;;;;;;;11.63;5.40;;;13.60;99.90;;;;;;5080265;28;20047;-63
2022/11/07 17:07:37;;;;;;;14.07;5.35;;;13.60;99.90;;;;;;5085655;28;20087;-63
2022/11/07 17:10:03;;;;;;;13.90;4.05;;;13.60;99.90;;;;;;5103834;28;20458;-63
2022/11/07 17:12:29;;;;;;;11.38;4.03;;;13.60;99.90;;;;;;5087758;28;20032;-63
2022/11/07 17:14:55;;;;;;;11.10;5.22;;;13.60;99.90;;;;;;5099805;28;20054;-64
2022/11/07 17:17:21;;;;;;;14.00;4.45;;;13.50;99.90;;;;;;5102766;28;20047;-63
2022/11/07 17:19:47;;;;;;;10.45;4.32;;;13.50;99.90;;;;;;5097743;28;20058;-63
2022/11/07 17:22:13;;;;;;;12.95;4.00;;;13.50;99.90;;;;;;5083126;28;20040;-64
2022/11/07 17:24:41;;;;;;;19.00;4.72;;;13.40;99.90;;;;;;5084562;28;20040;-63
2022/11/07 17:27:25;;;;;;;12.13;3.60;;;13.40;99.90;;;;;;5103793;28;20043;-63
2022/11/07 17:29:52;;;;;;;11.57;3.83;;;13.40;99.90;;;;;;5104502;28;20159;-63
2022/11/07 17:32:18;;;;;;;12.82;3.83;;;13.40;99.90;;;;;;5101984;28;20366;-63
2022/11/07 17:34:44;;;;;;;13.48;4.13;;;13.40;99.90;;;;;;5100708;28;20460;-65
2022/11/07 17:37:15;;;;;;;13.38;3.70;;;13.40;99.90;;;;;;5091272;28;20046;-63